Time;durP1;ratioP1;P1;durP2;ratioP2;P2;SDS_P1;SDS_P2;PMS_P1;PMS_P2;Temp;Humidity;BMP_temperature;BMP_pressure;BME280_temperature;BME280_humidity;BME280_pressure;Samples;Min_cycle;Max_cycle;Signal;HPM_P1;HPM_P2
2023/05/12 00:02:16;;;;;;;;;;;19.50;91.20;;;;;;5116371;28;19908;-58
2023/05/12 00:04:41;;;;;;;;;;;19.50;91.20;;;;;;5116683;28;19908;-57
2023/05/12 00:07:07;;;;;;;;;;;19.50;91.20;;;;;;5116003;28;19915;-57
2023/05/12 00:09:33;;;;;;;;;;;19.50;91.20;;;;;;5115955;28;20449;-58
2023/05/12 00:11:58;;;;;;;;;;;19.50;91.20;;;;;;5097849;28;19908;-58
2023/05/12 00:14:24;;;;;;;;;;;19.50;91.20;;;;;;5116173;28;20265;-57
2023/05/12 00:16:50;;;;;;;;;;;19.50;91.20;;;;;;5116012;28;20297;-57
2023/05/12 00:19:17;;;;;;;;;;;19.50;91.20;;;;;;5116074;28;19912;-58
2023/05/12 00:21:42;;;;;;;;;;;19.50;91.20;;;;;;5115655;28;19995;-56
2023/05/12 00:24:08;;;;;;;;;;;19.50;91.20;;;;;;5115894;28;19939;-58
2023/05/12 00:26:33;;;;;;;;;;;19.50;91.20;;;;;;5115869;28;19997;-57
2023/05/12 00:28:59;;;;;;;;;;;19.50;91.20;;;;;;5115564;28;20376;-58
2023/05/12 00:31:24;;;;;;;;;;;19.60;91.20;;;;;;5116141;28;19919;-57
2023/05/12 00:33:50;;;;;;;;;;;19.60;91.20;;;;;;5115878;28;19907;-58
2023/05/12 00:36:15;;;;;;;;;;;19.60;91.40;;;;;;5097407;28;19911;-58
2023/05/12 00:38:41;;;;;;;;;;;19.60;91.20;;;;;;5115730;28;20006;-57
2023/05/12 00:41:06;;;;;;;;;;;19.50;91.10;;;;;;5115485;28;19912;-58
2023/05/12 00:43:32;;;;;;;;;;;19.60;91.20;;;;;;5115611;28;19981;-58
2023/05/12 00:45:58;;;;;;;;;;;19.60;91.20;;;;;;5115228;28;19977;-57
2023/05/12 00:48:24;;;;;;;;;;;19.60;91.20;;;;;;5115414;28;19963;-58
2023/05/12 00:50:49;;;;;;;;;;;19.60;91.20;;;;;;5115164;28;19912;-57
2023/05/12 00:53:15;;;;;;;;;;;19.60;91.20;;;;;;5114991;28;19908;-57
2023/05/12 00:55:41;;;;;;;;;;;19.50;91.20;;;;;;5096937;28;19981;-57
2023/05/12 00:58:06;;;;;;;;;;;19.50;91.20;;;;;;5115565;28;19914;-57
2023/05/12 01:00:32;;;;;;;;;;;19.50;91.20;;;;;;5096165;28;20316;-57
2023/05/12 01:02:57;;;;;;;;;;;19.50;91.30;;;;;;5114848;28;19908;-58
2023/05/12 01:05:29;;;;;;;;;;;19.50;91.30;;;;;;5114911;28;19936;-57
2023/05/12 01:07:55;;;;;;;;;;;19.50;91.30;;;;;;5115030;28;20002;-58
2023/05/12 01:10:20;;;;;;;;;;;19.50;91.30;;;;;;5115046;28;20282;-58
2023/05/12 01:12:46;;;;;;;;;;;19.50;91.30;;;;;;5114837;28;19908;-58
2023/05/12 01:15:12;;;;;;;;;;;19.50;91.30;;;;;;5114724;28;19922;-58
2023/05/12 01:17:39;;;;;;;;;;;19.50;91.30;;;;;;5115325;28;19914;-57
2023/05/12 01:20:06;;;;;;;;;;;19.50;91.30;;;;;;5114996;28;20004;-58
2023/05/12 01:22:32;;;;;;;;;;;19.50;91.30;;;;;;5115000;28;19915;-58
2023/05/12 01:25:06;;;;;;;;;;;19.50;91.30;;;;;;5115219;28;19908;-58
2023/05/12 01:27:32;;;;;;;;;;;19.50;91.30;;;;;;5114708;28;19926;-58
2023/05/12 01:29:59;;;;;;;;;;;19.50;91.30;;;;;;5114790;28;19918;-58
2023/05/12 01:32:25;;;;;;;;;;;19.50;91.30;;;;;;5096602;28;19908;-58
2023/05/12 01:34:51;;;;;;;;;;;19.50;91.30;;;;;;5114713;28;20390;-57
2023/05/12 01:37:16;;;;;;;;;;;19.50;91.30;;;;;;5114440;28;19908;-58
2023/05/12 01:39:42;;;;;;;;;;;19.50;91.30;;;;;;5114665;28;19991;-58
2023/05/12 01:42:07;;;;;;;;;;;19.50;91.30;;;;;;5114452;28;19951;-58
2023/05/12 01:44:33;;;;;;;;;;;19.50;91.30;;;;;;5114703;28;20096;-58
2023/05/12 01:46:58;;;;;;;;;;;19.50;91.30;;;;;;5096325;28;20269;-58
2023/05/12 01:49:24;;;;;;;;;;;19.50;91.30;;;;;;5114121;28;20357;-57
2023/05/12 01:51:49;;;;;;;;;;;19.50;91.30;;;;;;5114522;28;20380;-58
2023/05/12 01:54:15;;;;;;;;;;;19.50;91.30;;;;;;5114204;28;19907;-58
2023/05/12 01:56:40;;;;;;;;;;;19.50;91.30;;;;;;5114767;28;19908;-58
2023/05/12 01:59:06;;;;;;;;;;;19.50;91.30;;;;;;5114124;28;19915;-58
2023/05/12 02:01:31;;;;;;;;;;;19.50;91.30;;;;;;5114753;28;19915;-59
2023/05/12 02:03:57;;;;;;;;;;;19.50;91.30;;;;;;5114676;28;19908;-59
2023/05/12 02:06:23;;;;;;;;;;;19.50;91.30;;;;;;5114399;28;19911;-59
2023/05/12 02:08:49;;;;;;;;;;;19.50;91.30;;;;;;5114383;28;19911;-58
2023/05/12 02:11:14;;;;;;;;;;;19.50;91.30;;;;;;5116394;28;19965;-58
2023/05/12 02:13:40;;;;;;;;;;;19.50;91.30;;;;;;5118452;28;19907;-58
2023/05/12 02:16:06;;;;;;;;;;;19.50;91.30;;;;;;5118075;28;20381;-58
2023/05/12 02:18:32;;;;;;;;;;;19.50;91.30;;;;;;5118385;28;20407;-58
2023/05/12 02:20:57;;;;;;;;;;;19.50;91.30;;;;;;5118121;28;19908;-58
2023/05/12 02:23:23;;;;;;;;;;;19.50;91.30;;;;;;5118062;28;19912;-58
2023/05/12 02:25:48;;;;;;;;;;;19.50;91.40;;;;;;5118318;28;19907;-57
2023/05/12 02:28:14;;;;;;;;;;;19.50;91.30;;;;;;5099906;28;19927;-58
2023/05/12 02:30:49;;;;;;;;;;;19.50;91.40;;;;;;5118199;28;20366;-58
2023/05/12 02:33:15;;;;;;;;;;;19.50;91.40;;;;;;5117882;28;20311;-58
2023/05/12 02:35:41;;;;;;;;;;;19.50;91.40;;;;;;5118435;28;19914;-58
2023/05/12 02:38:06;;;;;;;;;;;19.50;91.40;;;;;;5093367;28;19908;-59
2023/05/12 02:40:32;;;;;;;;;;;19.50;91.40;;;;;;5097458;28;19912;-58
2023/05/12 02:42:57;;;;;;;;;;;19.50;91.40;;;;;;5097667;28;19920;-58
2023/05/12 02:45:23;;;;;;;;;;;19.50;91.40;;;;;;5097136;28;19912;-59
2023/05/12 02:47:48;;;;;;;;;;;19.50;91.40;;;;;;5097351;28;20314;-58
2023/05/12 02:50:14;;;;;;;;;;;19.50;91.40;;;;;;5099752;28;20030;-59
2023/05/12 02:52:39;;;;;;;;;;;19.50;91.40;;;;;;5117772;28;19908;-58
2023/05/12 02:55:05;;;;;;;;;;;19.50;91.40;;;;;;5103518;28;19965;-59
2023/05/12 02:57:33;;;;;;;;;;;19.50;91.40;;;;;;5097183;28;19935;-59
2023/05/12 02:59:59;;;;;;;;;;;19.50;91.30;;;;;;5096969;28;19908;-58
2023/05/12 03:02:24;;;;;;;;;;;19.50;91.30;;;;;;5097277;28;19946;-58
2023/05/12 03:04:50;;;;;;;;;;;19.50;91.30;;;;;;5097220;28;19908;-58
2023/05/12 03:07:15;;;;;;;;;;;19.50;91.30;;;;;;5096709;28;19975;-59
2023/05/12 03:09:41;;;;;;;;;;;19.50;91.30;;;;;;5097089;28;19959;-58
2023/05/12 03:12:06;;;;;;;;;;;19.50;91.40;;;;;;5096889;28;20341;-56
2023/05/12 03:14:33;;;;;;;;;;;19.50;91.20;;;;;;5097278;28;19914;-58
2023/05/12 03:16:58;;;;;;;;;;;19.40;89.20;;;;;;5096642;28;19943;-58
2023/05/12 03:19:24;;;;;;;;;;;19.40;90.60;;;;;;5096910;28;19912;-58
2023/05/12 03:21:49;;;;;;;;;;;19.40;91.00;;;;;;5096192;28;19908;-58
2023/05/12 03:24:15;;;;;;;;;;;19.40;91.10;;;;;;5078302;28;19908;-58
2023/05/12 03:26:40;;;;;;;;;;;19.50;91.20;;;;;;5094559;28;19908;-58
2023/05/12 03:29:06;;;;;;;;;;;19.50;91.20;;;;;;5078369;28;20362;-58
2023/05/12 03:31:32;;;;;;;;;;;19.50;91.20;;;;;;5096245;28;20408;-58
2023/05/12 03:33:57;;;;;;;;;;;19.50;91.20;;;;;;5096529;28;20308;-58
2023/05/12 03:36:23;;;;;;;;;;;19.50;91.20;;;;;;5096562;28;19953;-58
2023/05/12 03:38:48;;;;;;;;;;;19.50;91.20;;;;;;5091454;28;19924;-58
2023/05/12 03:41:15;;;;;;;;;;;19.50;91.20;;;;;;5096152;28;19912;-58
2023/05/12 03:43:41;;;;;;;;;;;19.50;91.20;;;;;;5096420;28;19920;-58
2023/05/12 03:46:06;;;;;;;;;;;19.50;91.20;;;;;;5078448;28;19909;-58
2023/05/12 03:48:32;;;;;;;;;;;19.50;91.20;;;;;;5095986;28;19912;-58
2023/05/12 03:50:57;;;;;;;;;;;19.50;91.20;;;;;;5096306;28;19912;-58
2023/05/12 03:53:23;;;;;;;;;;;19.50;91.20;;;;;;5095077;28;19999;-58
2023/05/12 03:55:48;;;;;;;;;;;19.50;91.20;;;;;;5095962;28;19943;-58
2023/05/12 03:58:14;;;;;;;;;;;19.50;91.20;;;;;;5096118;28;19961;-58
2023/05/12 04:00:39;;;;;;;;;;;19.50;91.30;;;;;;5096124;28;19908;-58
2023/05/12 04:03:05;;;;;;;;;;;19.50;91.30;;;;;;5095691;28;19912;-58
2023/05/12 04:05:30;;;;;;;;;;;19.50;91.30;;;;;;5095764;28;19998;-59
2023/05/12 04:07:56;;;;;;;;;;;19.50;91.30;;;;;;5095474;28;19908;-58
2023/05/12 04:10:21;;;;;;;;;;;19.50;91.30;;;;;;5095748;28;20023;-58
2023/05/12 04:12:47;;;;;;;;;;;19.50;91.30;;;;;;5096223;28;20349;-58
2023/05/12 04:15:13;;;;;;;;;;;19.50;91.30;;;;;;5095799;28;19927;-58
2023/05/12 04:17:39;;;;;;;;;;;19.50;91.30;;;;;;5077651;28;19988;-58
2023/05/12 04:20:06;;;;;;;;;;;19.50;91.30;;;;;;5095816;28;19946;-58
2023/05/12 04:22:31;;;;;;;;;;;19.50;91.30;;;;;;5077317;28;19956;-58
2023/05/12 04:24:57;;;;;;;;;;;19.50;91.30;;;;;;5094240;28;19990;-58
2023/05/12 04:27:22;;;;;;;;;;;19.50;91.30;;;;;;5093487;28;19904;-58
2023/05/12 04:29:48;;;;;;;;;;;19.50;91.30;;;;;;5095253;28;19909;-58
2023/05/12 04:32:13;;;;;;;;;;;19.50;91.30;;;;;;5095175;28;19951;-58
2023/05/12 04:34:38;;;;;;;;;;;19.50;91.30;;;;;;5094020;28;19911;-58
2023/05/12 04:37:04;;;;;;;;;;;19.50;91.30;;;;;;5095301;28;19904;-58
2023/05/12 04:39:29;;;;;;;;;;;19.50;91.30;;;;;;5077087;28;19915;-58
2023/05/12 04:41:55;;;;;;;;;;;19.50;91.30;;;;;;5094993;28;19911;-58
2023/05/12 04:44:21;;;;;;;;;;;19.50;91.30;;;;;;5095184;28;19998;-58
2023/05/12 04:46:46;;;;;;;;;;;19.40;91.30;;;;;;5094794;28;19904;-58
2023/05/12 04:49:12;;;;;;;;;;;19.50;91.30;;;;;;5094755;28;19912;-58
2023/05/12 04:51:41;;;;;;;;;;;19.50;91.30;;;;;;5095097;28;20013;-58
2023/05/12 04:54:09;;;;;;;;;;;19.40;91.30;;;;;;5095021;28;19953;-58
2023/05/12 04:56:35;;;;;;;;;;;19.40;91.30;;;;;;5094718;28;19911;-58
2023/05/12 04:59:00;;;;;;;;;;;19.40;91.30;;;;;;5094889;28;20285;-58
2023/05/12 05:01:26;;;;;;;;;;;19.40;91.30;;;;;;5094897;28;20033;-58
2023/05/12 05:03:51;;;;;;;;;;;19.40;91.30;;;;;;5094625;28;19919;-59
2023/05/12 05:06:17;;;;;;;;;;;19.40;91.30;;;;;;5076614;28;19958;-58
2023/05/12 05:08:42;;;;;;;;;;;19.40;91.30;;;;;;5076434;28;19914;-58
2023/05/12 05:11:08;;;;;;;;;;;19.40;91.30;;;;;;5094577;28;19991;-58
2023/05/12 05:13:34;;;;;;;;;;;19.40;91.30;;;;;;5094428;28;19916;-58
2023/05/12 05:16:00;;;;;;;;;;;19.40;91.40;;;;;;5094642;28;19953;-58
2023/05/12 05:18:26;;;;;;;;;;;19.40;91.40;;;;;;5094338;28;19913;-58
2023/05/12 05:20:51;;;;;;;;;;;19.40;91.40;;;;;;5094444;28;20258;-58
2023/05/12 05:23:17;;;;;;;;;;;19.40;91.30;;;;;;5076146;28;19904;-58
2023/05/12 05:25:42;;;;;;;;;;;19.40;91.40;;;;;;5094413;28;19998;-58
2023/05/12 05:28:08;;;;;;;;;;;19.40;91.40;;;;;;5094309;28;20341;-58
2023/05/12 05:30:34;;;;;;;;;;;19.40;91.40;;;;;;5094157;28;20321;-58
2023/05/12 05:32:59;;;;;;;;;;;19.40;91.40;;;;;;5094101;28;19904;-57
2023/05/12 05:35:25;;;;;;;;;;;19.40;91.30;;;;;;5094627;28;20036;-58
2023/05/12 05:37:52;;;;;;;;;;;19.40;91.60;;;;;;5076028;28;19904;-58
2023/05/12 05:40:18;;;;;;;;;;;19.40;91.40;;;;;;5093645;28;20359;-58
2023/05/12 05:42:43;;;;;;;;;;;19.40;91.40;;;;;;5093765;28;19973;-58
2023/05/12 05:45:09;;;;;;;;;;;19.50;91.40;;;;;;5075527;28;20251;-58
2023/05/12 05:47:36;;;;;;;;;;;19.40;91.30;;;;;;5075762;28;19904;-58
2023/05/12 05:50:02;;;;;;;;;;;19.40;91.30;;;;;;5093800;28;19912;-58
2023/05/12 05:52:27;;;;;;;;;;;19.40;91.40;;;;;;5094067;28;19904;-58
2023/05/12 05:54:53;;;;;;;;;;;19.40;91.40;;;;;;5093736;28;20027;-58
2023/05/12 05:57:18;;;;;;;;;;;19.40;91.40;;;;;;5093488;28;19904;-58
2023/05/12 05:59:44;;;;;;;;;;;19.40;91.40;;;;;;5094179;28;20251;-58
2023/05/12 06:02:09;;;;;;;;;;;19.40;91.40;;;;;;5093802;28;19958;-58
2023/05/12 06:04:35;;;;;;;;;;;19.40;91.40;;;;;;5093911;28;19910;-58
2023/05/12 06:07:00;;;;;;;;;;;19.40;91.40;;;;;;5093557;28;20351;-58
2023/05/12 06:09:26;;;;;;;;;;;19.40;91.40;;;;;;5093313;28;19951;-58
2023/05/12 06:11:51;;;;;;;;;;;19.40;91.40;;;;;;5093202;28;19915;-58
2023/05/12 06:14:17;;;;;;;;;;;19.40;91.40;;;;;;5093658;28;19904;-58
2023/05/12 06:16:42;;;;;;;;;;;19.40;91.40;;;;;;5093455;28;19916;-58
2023/05/12 06:19:08;;;;;;;;;;;19.40;91.40;;;;;;5093404;28;19994;-58
2023/05/12 06:21:33;;;;;;;;;;;19.40;91.40;;;;;;5093488;28;19943;-58
2023/05/12 06:23:59;;;;;;;;;;;19.40;91.40;;;;;;5093209;28;20238;-58
2023/05/12 06:26:24;;;;;;;;;;;19.40;91.40;;;;;;5093996;28;19904;-58
2023/05/12 06:28:50;;;;;;;;;;;19.40;91.40;;;;;;5093679;28;19908;-59
2023/05/12 06:31:15;;;;;;;;;;;19.40;91.40;;;;;;5093488;28;19908;-58
2023/05/12 06:33:41;;;;;;;;;;;19.40;91.40;;;;;;5093939;28;20342;-59
2023/05/12 06:36:07;;;;;;;;;;;19.40;91.40;;;;;;5093543;28;19937;-58
2023/05/12 06:38:33;;;;;;;;;;;19.40;91.40;;;;;;5094006;28;19958;-59
2023/05/12 06:40:58;;;;;;;;;;;19.40;91.40;;;;;;5075314;28;20276;-58
2023/05/12 06:43:24;;;;;;;;;;;19.40;91.40;;;;;;5093570;28;20346;-59
2023/05/12 06:45:50;;;;;;;;;;;19.40;91.40;;;;;;5075371;28;19911;-58
2023/05/12 06:48:15;;;;;;;;;;;19.40;91.40;;;;;;5092933;28;19919;-58
2023/05/12 06:50:41;;;;;;;;;;;19.40;91.40;;;;;;5093293;28;19953;-59
2023/05/12 06:53:06;;;;;;;;;;;19.40;91.40;;;;;;5093496;28;19905;-58
2023/05/12 06:55:33;;;;;;;;;;;19.40;91.40;;;;;;5093560;28;20255;-58
2023/05/12 06:57:58;;;;;;;;;;;19.40;91.40;;;;;;5094660;28;19958;-58
2023/05/12 07:00:24;;;;;;;;;;;19.40;91.60;;;;;;5097249;28;19912;-58
2023/05/12 07:02:50;;;;;;;;;;;19.40;91.40;;;;;;5095523;28;19904;-58
2023/05/12 07:05:15;;;;;;;;;;;19.40;91.40;;;;;;5098955;28;19918;-58
2023/05/12 07:07:40;;;;;;;;;;;19.40;91.40;;;;;;5097090;28;20361;-56
2023/05/12 07:10:06;;;;;;;;;;;19.40;91.40;;;;;;5078508;28;19943;-57
2023/05/12 07:12:34;;;;;;;;;;;19.40;91.40;;;;;;5096685;28;19915;-58
2023/05/12 07:14:59;;;;;;;;;;;19.40;91.40;;;;;;5096402;28;20410;-58
2023/05/12 07:17:25;;;;;;;;;;;19.40;91.40;;;;;;5078581;28;19908;-58
2023/05/12 07:19:51;;;;;;;;;;;19.40;91.40;;;;;;5094610;28;19914;-58
2023/05/12 07:22:17;;;;;;;;;;;19.40;91.50;;;;;;5078188;28;20250;-58
2023/05/12 07:24:43;;;;;;;;;;;19.40;91.50;;;;;;5096242;28;19911;-58
2023/05/12 07:27:08;;;;;;;;;;;19.40;91.50;;;;;;5096575;28;20327;-57
2023/05/12 07:29:33;;;;;;;;;;;19.40;91.50;;;;;;5077906;28;20422;-58
2023/05/12 07:31:59;;;;;;;;;;;19.40;91.50;;;;;;5077954;28;19915;-58
2023/05/12 07:34:24;;;;;;;;;;;19.30;91.50;;;;;;5078413;28;19908;-58
2023/05/12 07:36:50;;;;;;;;;;;19.40;91.50;;;;;;5095865;28;20267;-58
2023/05/12 07:39:18;;;;;;;;;;;19.30;91.50;;;;;;5096025;28;19904;-57
2023/05/12 07:41:43;;;;;;;;;;;19.40;91.50;;;;;;5096431;28;19939;-57
2023/05/12 07:44:09;;;;;;;;;;;19.40;91.50;;;;;;5096182;28;19969;-58
2023/05/12 07:46:35;;;;;;;;;;;19.40;91.50;;;;;;5097375;28;20022;-57
2023/05/12 07:49:00;;;;;;;;;;;19.40;91.50;;;;;;5086683;28;20414;-58
2023/05/12 07:51:26;;;;;;;;;;;19.40;91.50;;;;;;5078787;28;19958;-58
2023/05/12 07:53:54;;;;;;;;;;;19.40;91.50;;;;;;5103358;28;19939;-58
2023/05/12 07:56:20;;;;;;;;;;;19.40;91.50;;;;;;5077822;28;20327;-58
2023/05/12 07:58:46;;;;;;;;;;;19.40;91.50;;;;;;5095657;28;19954;-58
2023/05/12 08:01:11;;;;;;;;;;;19.40;91.50;;;;;;5095671;28;19935;-57
2023/05/12 08:03:38;;;;;;;;;;;19.40;91.50;;;;;;5095922;28;19904;-58
2023/05/12 08:06:06;;;;;;;;;;;19.40;91.50;;;;;;5095762;28;19904;-58
2023/05/12 08:08:32;;;;;;;;;;;19.40;91.50;;;;;;5093404;28;19923;-58
2023/05/12 08:10:57;;;;;;;;;;;19.40;91.50;;;;;;5095335;28;19913;-59
2023/05/12 08:13:22;;;;;;;;;;;19.40;91.40;;;;;;5095745;28;19912;-57
2023/05/12 08:15:48;;;;;;;;;;;19.40;91.70;;;;;;5095280;28;19908;-59
2023/05/12 08:18:14;;;;;;;;;;;19.40;91.50;;;;;;5095458;28;20334;-59
2023/05/12 08:20:40;;;;;;;;;;;19.40;91.50;;;;;;5095639;28;19985;-59
2023/05/12 08:23:06;;;;;;;;;;;19.40;91.50;;;;;;5095073;28;20049;-59
2023/05/12 08:25:36;;;;;;;;;;;19.40;91.50;;;;;;5094915;28;19908;-55
2023/05/12 08:28:02;;;;;;;;;;;19.40;91.50;;;;;;5095393;28;19912;-56
2023/05/12 08:30:28;;;;;;;;;;;19.30;89.90;;;;;;5095455;28;19919;-57
2023/05/12 08:32:54;;;;;;;;;;;19.20;89.40;;;;;;5103701;28;19972;-58
2023/05/12 08:35:19;;;;;;;;;;;19.20;89.40;;;;;;5095634;28;19958;-57
2023/05/12 08:37:45;;;;;;;;;;;19.20;90.30;;;;;;5092016;28;19916;-62
2023/05/12 08:40:15;;;;;;;;;;;19.20;90.00;;;;;;5075586;28;19916;-61
2023/05/12 08:42:41;;;;;;;;;;;19.20;90.10;;;;;;5094376;28;19920;-61
2023/05/12 08:45:06;;;;;;;;;;;19.20;90.60;;;;;;5094957;28;19991;-60
2023/05/12 08:47:32;;;;;;;;;;;19.20;90.90;;;;;;5098863;28;19947;-60
2023/05/12 08:49:59;;;;;;;;;;;19.30;91.00;;;;;;5112394;28;19919;-61
2023/05/12 08:52:26;;;;;;;;;;;19.30;91.00;;;;;;5096623;28;20003;-60
2023/05/12 08:54:52;;;;;;;;;;;19.30;91.10;;;;;;5094450;28;20433;-61
2023/05/12 08:57:19;;;;;;;;;;;19.30;91.10;;;;;;5094578;28;19983;-60
2023/05/12 08:59:45;;;;;;;;;;;19.30;91.10;;;;;;5094169;28;20011;-60
2023/05/12 09:02:12;;;;;;;;;;;19.30;91.10;;;;;;5094291;28;19914;-61
2023/05/12 09:04:38;;;;;;;;;;;19.30;91.10;;;;;;5094055;28;20397;-60
2023/05/12 09:07:05;;;;;;;;;;;19.30;91.10;;;;;;5094525;28;19908;-60
2023/05/12 09:09:32;;;;;;;;;;;19.30;91.20;;;;;;5094336;28;19912;-60
2023/05/12 09:12:00;;;;;;;;;;;19.30;91.20;;;;;;5095445;28;20307;-60
2023/05/12 09:14:28;;;;;;;;;;;19.30;91.20;;;;;;5093879;28;19912;-61
2023/05/12 09:17:02;;;;;;;;;;;19.30;91.20;;;;;;5094210;28;19912;-60
2023/05/12 09:19:28;;;;;;;;;;;19.40;91.20;;;;;;5094076;28;19908;-60
2023/05/12 09:21:53;;;;;;;;;;;19.30;91.20;;;;;;5093908;28;20014;-60
2023/05/12 09:24:19;;;;;;;;;;;19.40;91.30;;;;;;5094233;28;19912;-60
2023/05/12 09:26:52;;;;;;;;;;;19.40;91.30;;;;;;5093692;28;20278;-60
2023/05/12 09:29:18;;;;;;;;;;;19.40;91.30;;;;;;5094119;28;20328;-60
2023/05/12 09:31:50;;;;;;;;;;;19.40;91.30;;;;;;5094144;28;19920;-61
2023/05/12 09:34:15;;;;;;;;;;;19.40;91.30;;;;;;5093895;28;20418;-60
2023/05/12 09:36:41;;;;;;;;;;;19.30;91.30;;;;;;5093782;28;20022;-60
2023/05/12 09:39:07;;;;;;;;;;;19.40;91.30;;;;;;5093535;28;19908;-60
2023/05/12 09:41:39;;;;;;;;;;;19.40;91.30;;;;;;5093722;28;19908;-60
2023/05/12 09:44:05;;;;;;;;;;;19.40;91.30;;;;;;5075273;28;19921;-60
2023/05/12 09:46:31;;;;;;;;;;;19.40;91.40;;;;;;5093471;28;20412;-60
2023/05/12 09:48:57;;;;;;;;;;;19.40;91.40;;;;;;5093964;28;20021;-60
2023/05/12 09:51:23;;;;;;;;;;;19.40;91.40;;;;;;5093967;28;19912;-60
2023/05/12 09:53:48;;;;;;;;;;;19.40;91.40;;;;;;5094035;28;19912;-60
2023/05/12 09:56:15;;;;;;;;;;;19.40;91.40;;;;;;5094264;28;19912;-55
2023/05/12 09:58:44;;;;;;;;;;;19.40;91.40;;;;;;5094563;28;20286;-60
2023/05/12 10:01:11;;;;;;;;;;;19.40;91.40;;;;;;5108387;28;19965;-60
2023/05/12 10:03:37;;;;;;;;;;;19.40;91.30;;;;;;5092020;28;19915;-60
2023/05/12 10:06:05;;;;;;;;;;;19.40;91.40;;;;;;5093620;28;19909;-60
2023/05/12 10:08:32;;;;;;;;;;;19.40;91.40;;;;;;5091603;28;19952;-60
2023/05/12 10:11:00;;;;;;;;;;;19.40;91.30;;;;;;5098401;28;19915;-59
2023/05/12 10:13:27;;;;;;;;;;;19.40;91.30;;;;;;5079697;28;19999;-60
2023/05/12 10:15:54;;;;;;;;;;;19.40;91.30;;;;;;5093266;28;19908;-59
2023/05/12 10:18:20;;;;;;;;;;;19.40;91.30;;;;;;5094427;28;19919;-59
2023/05/12 10:20:46;;;;;;;;;;;19.40;91.20;;;;;;5112392;28;19911;-60
2023/05/12 10:23:12;;;;;;;;;;;19.40;91.20;;;;;;5105151;28;19919;-59
2023/05/12 10:25:39;;;;;;;;;;;19.40;91.20;;;;;;5113568;28;19908;-60
2023/05/12 10:28:05;;;;;;;;;;;19.40;91.20;;;;;;5113647;28;20006;-60
2023/05/12 10:30:31;;;;;;;;;;;19.40;91.20;;;;;;5096583;28;20007;-60
2023/05/12 10:32:57;;;;;;;;;;;19.40;91.20;;;;;;5093113;28;19919;-60
2023/05/12 10:35:31;;;;;;;;;;;19.40;91.20;;;;;;5098694;28;19912;-60
2023/05/12 10:37:59;;;;;;;;;;;19.40;91.10;;;;;;5099283;28;20412;-60
2023/05/12 10:40:25;;;;;;;;;;;19.40;91.10;;;;;;5097628;28;19910;-60
2023/05/12 10:42:51;;;;;;;;;;;19.40;91.10;;;;;;5104801;28;19927;-60
2023/05/12 10:45:17;;;;;;;;;;;19.40;91.10;;;;;;5102968;28;19909;-60
2023/05/12 10:47:43;;;;;;;;;;;19.40;91.10;;;;;;5096916;28;19963;-60
2023/05/12 10:50:12;;;;;;;;;;;19.40;91.20;;;;;;5100642;28;20371;-60
2023/05/12 10:52:40;;;;;;;;;;;19.40;91.10;;;;;;5094923;28;20441;-61
2023/05/12 10:55:10;;;;;;;;;;;19.40;91.10;;;;;;5078649;28;20440;-60
2023/05/12 10:57:46;;;;;;;;;;;19.40;91.10;;;;;;5099320;28;19912;-61
2023/05/12 11:00:12;;;;;;;;;;;19.40;91.10;;;;;;5096523;28;19957;-59
2023/05/12 11:02:48;;;;;;;;;;;19.40;91.10;;;;;;5094143;28;19912;-59
2023/05/12 11:05:13;;;;;;;;;;;19.40;91.10;;;;;;5096901;28;19944;-59
2023/05/12 11:07:39;;;;;;;;;;;19.40;91.10;;;;;;5099583;28;19951;-60
2023/05/12 11:10:04;;;;;;;;;;;19.40;91.10;;;;;;5095748;28;19916;-60
2023/05/12 11:12:36;;;;;;;;;;;19.40;91.10;;;;;;5096755;28;19908;-60
2023/05/12 11:15:03;;;;;;;;;;;19.40;91.10;;;;;;5078427;28;19908;-60
2023/05/12 11:17:29;;;;;;;;;;;19.40;91.10;;;;;;5096493;28;20073;-59
2023/05/12 11:19:55;;;;;;;;;;;19.40;91.10;;;;;;5096060;28;19973;-60
2023/05/12 11:22:22;;;;;;;;;;;19.40;91.10;;;;;;5096271;28;19908;-60
2023/05/12 11:24:48;;;;;;;;;;;19.40;91.10;;;;;;5096541;28;19908;-60
2023/05/12 11:27:14;;;;;;;;;;;19.40;91.10;;;;;;5096289;28;19977;-59
2023/05/12 11:29:40;;;;;;;;;;;19.40;91.00;;;;;;5096169;28;19912;-60
2023/05/12 11:32:07;;;;;;;;;;;19.40;91.00;;;;;;5096343;28;20454;-60
2023/05/12 11:34:32;;;;;;;;;;;19.40;91.00;;;;;;5096100;28;20003;-59
2023/05/12 11:36:58;;;;;;;;;;;19.40;91.00;;;;;;5093855;28;19962;-59
2023/05/12 11:39:26;;;;;;;;;;;19.40;91.00;;;;;;5095880;28;20373;-60
2023/05/12 11:41:52;;;;;;;;;;;19.40;91.00;;;;;;5094030;28;19951;-59
2023/05/12 11:44:18;;;;;;;;;;;19.40;91.00;;;;;;5107729;28;19943;-59
2023/05/12 11:46:56;;;;;;;;;;;19.40;91.00;;;;;;5105791;28;20414;-60
2023/05/12 11:49:21;;;;;;;;;;;19.40;90.80;;;;;;5110473;28;19916;-59
2023/05/12 11:51:47;;;;;;;;;;;19.30;90.60;;;;;;5094922;28;19915;-60
2023/05/12 11:54:13;;;;;;;;;;;19.30;90.80;;;;;;5095879;28;19909;-60
2023/05/12 11:56:46;;;;;;;;;;;19.30;90.90;;;;;;5077879;28;19974;-60
2023/05/12 11:59:11;;;;;;;;;;;19.40;90.90;;;;;;5115932;28;19915;-60
2023/05/12 12:01:43;;;;;;;;;;;19.40;90.90;;;;;;5114169;28;19912;-60
2023/05/12 12:04:09;;;;;;;;;;;19.30;90.90;;;;;;5104751;28;19912;-60
2023/05/12 12:06:41;;;;;;;;;;;19.40;90.90;;;;;;5091738;28;19984;-59
2023/05/12 12:09:07;;;;;;;;;;;19.40;90.90;;;;;;5094284;28;19916;-60
2023/05/12 12:11:33;;;;;;;;;;;19.30;90.90;;;;;;5102424;28;20044;-59
2023/05/12 12:13:59;;;;;;;;;;;19.40;90.90;;;;;;5084235;28;19909;-59
2023/05/12 12:16:29;;;;;;;;;;;19.30;90.90;;;;;;5074610;28;20037;-59
2023/05/12 12:18:55;;;;;;;;;;;19.30;90.90;;;;;;5094972;28;19982;-60
2023/05/12 12:21:21;;;;;;;;;;;19.30;90.80;;;;;;5095420;28;19908;-60
2023/05/12 12:23:46;;;;;;;;;;;19.30;90.90;;;;;;5089692;28;19978;-59
2023/05/12 12:26:15;;;;;;;;;;;19.40;90.90;;;;;;5086866;28;20305;-60
2023/05/12 12:28:46;;;;;;;;;;;19.30;90.90;;;;;;5077019;28;19920;-60
2023/05/12 12:31:12;;;;;;;;;;;19.30;90.90;;;;;;5095234;28;19912;-60
2023/05/12 12:33:38;;;;;;;;;;;19.30;90.90;;;;;;5076854;28;19915;-60
2023/05/12 12:36:04;;;;;;;;;;;19.30;90.90;;;;;;5094811;28;19912;-59
2023/05/12 12:38:30;;;;;;;;;;;19.30;90.90;;;;;;5095210;28;19917;-60
2023/05/12 12:40:55;;;;;;;;;;;19.30;90.90;;;;;;5094847;28;19916;-60
2023/05/12 12:43:21;;;;;;;;;;;19.30;90.90;;;;;;5095100;28;20260;-60
2023/05/12 12:45:47;;;;;;;;;;;19.30;90.90;;;;;;5099134;28;19916;-59
2023/05/12 12:48:12;;;;;;;;;;;19.30;90.90;;;;;;5102282;28;19924;-60
2023/05/12 12:50:38;;;;;;;;;;;19.30;90.90;;;;;;5110362;28;19916;-58
2023/05/12 12:53:05;;;;;;;;;;;19.30;90.90;;;;;;5097372;28;20151;-60
2023/05/12 12:55:31;;;;;;;;;;;19.30;90.90;;;;;;5108466;28;19920;-60
2023/05/12 12:57:56;;;;;;;;;;;19.30;90.90;;;;;;5106007;28;19938;-60
2023/05/12 13:00:22;;;;;;;;;;;19.30;90.90;;;;;;5095057;28;19935;-59
2023/05/12 13:02:48;;;;;;;;;;;19.30;90.90;;;;;;5088953;28;19919;-61
2023/05/12 13:05:15;;;;;;;;;;;19.30;90.90;;;;;;5094760;28;20014;-60
2023/05/12 13:07:40;;;;;;;;;;;19.30;90.90;;;;;;5094772;28;19912;-60
2023/05/12 13:10:06;;;;;;;;;;;19.30;90.80;;;;;;5094006;28;19984;-61
2023/05/12 13:12:31;;;;;;;;;;;19.30;90.80;;;;;;5090875;28;19919;-60
2023/05/12 13:14:58;;;;;;;;;;;19.30;90.80;;;;;;5082627;28;19919;-60
2023/05/12 13:17:24;;;;;;;;;;;19.30;90.80;;;;;;5094467;28;19916;-60
2023/05/12 13:19:51;;;;;;;;;;;19.30;90.80;;;;;;5094123;28;19915;-60
2023/05/12 13:22:17;;;;;;;;;;;19.30;90.80;;;;;;5076106;28;20347;-60
2023/05/12 13:24:42;;;;;;;;;;;19.30;90.80;;;;;;5104254;28;19912;-60
2023/05/12 13:27:08;;;;;;;;;;;19.30;90.80;;;;;;5108683;28;19912;-60
2023/05/12 13:29:35;;;;;;;;;;;19.30;90.80;;;;;;5107157;28;19945;-60
2023/05/12 13:32:00;;;;;;;;;;;19.30;90.80;;;;;;5106758;28;19951;-60
2023/05/12 13:34:26;;;;;;;;;;;19.30;90.80;;;;;;5091219;28;20011;-60
2023/05/12 13:36:51;;;;;;;;;;;19.30;90.80;;;;;;5111907;28;19972;-60
2023/05/12 13:39:17;;;;;;;;;;;19.30;90.80;;;;;;5113150;28;19933;-60
2023/05/12 13:41:43;;;;;;;;;;;19.30;90.80;;;;;;5102904;28;19912;-59
2023/05/12 13:44:08;;;;;;;;;;;19.30;90.70;;;;;;5093077;28;19975;-60
2023/05/12 13:46:34;;;;;;;;;;;19.30;90.70;;;;;;5093942;28;19931;-60
2023/05/12 13:48:59;;;;;;;;;;;19.30;90.80;;;;;;5093613;28;20381;-60
2023/05/12 13:51:25;;;;;;;;;;;19.40;90.80;;;;;;5092278;28;19912;-61
2023/05/12 13:53:51;;;;;;;;;;;19.30;90.70;;;;;;5092540;28;20309;-60
2023/05/12 13:56:17;;;;;;;;;;;19.30;90.70;;;;;;5076307;28;19915;-60
2023/05/12 13:58:42;;;;;;;;;;;19.30;90.70;;;;;;5093432;28;19952;-60
2023/05/12 14:01:08;;;;;;;;;;;19.30;90.70;;;;;;5091844;28;19908;-60
2023/05/12 14:03:34;;;;;;;;;;;19.30;90.70;;;;;;5093327;28;19916;-60
2023/05/12 14:05:59;;;;;;;;;;;19.30;90.70;;;;;;5072761;28;20343;-59
2023/05/12 14:08:25;;;;;;;;;;;19.30;90.70;;;;;;5092806;28;20007;-60
2023/05/12 14:10:50;;;;;;;;;;;19.30;90.70;;;;;;5097459;28;19919;-60